sensor_id;sensor_type;location;lat;lon;timestamp;pressure;altitude;pressure_sealevel;temperature;humidity
75045;BME280;63614;56.026;35.960;2023-07-31T00:01:26;98521.22;;;12.76;82.03
75045;BME280;63614;56.026;35.960;2023-07-31T00:03:52;98525.41;;;12.77;81.72
75045;BME280;63614;56.026;35.960;2023-07-31T00:06:17;98524.81;;;12.75;81.94
75045;BME280;63614;56.026;35.960;2023-07-31T00:08:43;98526.53;;;12.69;82.03
75045;BME280;63614;56.026;35.960;2023-07-31T00:11:09;98519.94;;;12.66;82.16
75045;BME280;63614;56.026;35.960;2023-07-31T00:13:35;98531.25;;;12.60;82.55
75045;BME280;63614;56.026;35.960;2023-07-31T00:16:01;98520.69;;;12.55;82.47
75045;BME280;63614;56.026;35.960;2023-07-31T00:18:26;98523.16;;;12.50;82.46
75045;BME280;63614;56.026;35.960;2023-07-31T00:20:52;98518.59;;;12.45;82.96
75045;BME280;63614;56.026;35.960;2023-07-31T00:23:18;98512.22;;;12.41;82.88
75045;BME280;63614;56.026;35.960;2023-07-31T00:25:44;98523.16;;;12.50;82.37
75045;BME280;63614;56.026;35.960;2023-07-31T00:28:09;98507.28;;;12.51;82.32
75045;BME280;63614;56.026;35.960;2023-07-31T00:30:35;98510.69;;;12.52;81.78
75045;BME280;63614;56.026;35.960;2023-07-31T00:33:01;98513.75;;;12.49;82.29
75045;BME280;63614;56.026;35.960;2023-07-31T00:35:27;98512.00;;;12.43;82.60
75045;BME280;63614;56.026;35.960;2023-07-31T00:37:53;98508.06;;;12.40;83.15
75045;BME280;63614;56.026;35.960;2023-07-31T00:40:19;98507.53;;;12.31;83.31
75045;BME280;63614;56.026;35.960;2023-07-31T00:42:45;98508.94;;;12.34;83.54
75045;BME280;63614;56.026;35.960;2023-07-31T00:45:11;98510.97;;;12.32;83.23
75045;BME280;63614;56.026;35.960;2023-07-31T00:47:37;98515.53;;;12.37;82.67
75045;BME280;63614;56.026;35.960;2023-07-31T00:50:03;98509.94;;;12.33;82.77
75045;BME280;63614;56.026;35.960;2023-07-31T00:52:30;98516.41;;;12.30;82.84
75045;BME280;63614;56.026;35.960;2023-07-31T00:54:56;98515.59;;;12.30;82.87
75045;BME280;63614;56.026;35.960;2023-07-31T00:57:22;98512.97;;;12.30;83.08
75045;BME280;63614;56.026;35.960;2023-07-31T00:59:50;98514.59;;;12.31;82.25
75045;BME280;63614;56.026;35.960;2023-07-31T01:02:16;98506.41;;;12.27;82.37
75045;BME280;63614;56.026;35.960;2023-07-31T01:04:43;98505.38;;;12.28;82.10
75045;BME280;63614;56.026;35.960;2023-07-31T01:10:13;98514.09;;;12.04;82.48
75045;BME280;63614;56.026;35.960;2023-07-31T01:12:41;98504.19;;;11.94;82.45
75045;BME280;63614;56.026;35.960;2023-07-31T01:15:08;98506.38;;;11.97;82.27
75045;BME280;63614;56.026;35.960;2023-07-31T01:17:39;98504.59;;;11.91;82.28
75045;BME280;63614;56.026;35.960;2023-07-31T01:20:20;98510.97;;;11.95;82.35
75045;BME280;63614;56.026;35.960;2023-07-31T01:22:58;98510.97;;;11.95;82.57
75045;BME280;63614;56.026;35.960;2023-07-31T01:28:45;98514.63;;;11.94;84.25
75045;BME280;63614;56.026;35.960;2023-07-31T01:31:16;98512.00;;;11.94;84.29
75045;BME280;63614;56.026;35.960;2023-07-31T01:33:43;98515.19;;;11.96;83.92
75045;BME280;63614;56.026;35.960;2023-07-31T01:36:11;98513.97;;;11.98;84.24
75045;BME280;63614;56.026;35.960;2023-07-31T01:38:37;98507.06;;;12.04;83.94
75045;BME280;63614;56.026;35.960;2023-07-31T01:41:02;98509.69;;;12.04;83.48
75045;BME280;63614;56.026;35.960;2023-07-31T01:43:28;98516.50;;;12.05;83.47
75045;BME280;63614;56.026;35.960;2023-07-31T01:45:55;98505.84;;;12.07;83.27
75045;BME280;63614;56.026;35.960;2023-07-31T01:48:21;98509.16;;;12.14;84.10
75045;BME280;63614;56.026;35.960;2023-07-31T01:50:46;98513.94;;;12.35;84.04
75045;BME280;63614;56.026;35.960;2023-07-31T01:53:12;98517.75;;;12.63;82.41
75045;BME280;63614;56.026;35.960;2023-07-31T01:55:39;98517.38;;;12.90;81.21
75045;BME280;63614;56.026;35.960;2023-07-31T01:58:04;98511.44;;;13.13;80.02
75045;BME280;63614;56.026;35.960;2023-07-31T02:00:30;98520.88;;;13.38;79.28
75045;BME280;63614;56.026;35.960;2023-07-31T02:02:56;98524.84;;;13.64;78.51
75045;BME280;63614;56.026;35.960;2023-07-31T02:05:22;98526.97;;;14.03;77.67
75045;BME280;63614;56.026;35.960;2023-07-31T02:07:48;98527.59;;;14.22;76.23
75045;BME280;63614;56.026;35.960;2023-07-31T02:10:14;98526.41;;;14.41;75.07
75045;BME280;63614;56.026;35.960;2023-07-31T02:12:40;98523.94;;;14.51;74.41
75045;BME280;63614;56.026;35.960;2023-07-31T02:15:06;98516.56;;;14.48;73.54
75045;BME280;63614;56.026;35.960;2023-07-31T02:17:33;98519.75;;;14.50;74.08
75045;BME280;63614;56.026;35.960;2023-07-31T02:20:00;98522.16;;;14.52;73.66
75045;BME280;63614;56.026;35.960;2023-07-31T02:22:27;98528.75;;;15.00;72.24
75045;BME280;63614;56.026;35.960;2023-07-31T02:24:52;98530.50;;;15.29;71.78
75045;BME280;63614;56.026;35.960;2023-07-31T02:27:19;98530.16;;;15.59;70.78
75045;BME280;63614;56.026;35.960;2023-07-31T02:29:49;98521.03;;;16.01;69.28
75045;BME280;63614;56.026;35.960;2023-07-31T02:32:15;98513.44;;;16.04;68.55
75045;BME280;63614;56.026;35.960;2023-07-31T02:34:40;98514.75;;;16.29;67.38
75045;BME280;63614;56.026;35.960;2023-07-31T02:37:06;98511.84;;;16.52;66.37
75045;BME280;63614;56.026;35.960;2023-07-31T02:39:32;98511.34;;;16.83;65.41
75045;BME280;63614;56.026;35.960;2023-07-31T02:41:59;98512.41;;;17.14;64.34
75045;BME280;63614;56.026;35.960;2023-07-31T02:44:25;98506.06;;;17.48;62.50
75045;BME280;63614;56.026;35.960;2023-07-31T02:46:51;98511.72;;;17.72;61.26
75045;BME280;63614;56.026;35.960;2023-07-31T02:49:17;98511.94;;;17.60;61.84
75045;BME280;63614;56.026;35.960;2023-07-31T02:51:43;98520.44;;;17.35;62.51
75045;BME280;63614;56.026;35.960;2023-07-31T02:54:08;98512.56;;;17.83;61.34
75045;BME280;63614;56.026;35.960;2023-07-31T02:56:34;98512.44;;;18.15;60.75
75045;BME280;63614;56.026;35.960;2023-07-31T02:59:00;98510.56;;;18.05;60.97
75045;BME280;63614;56.026;35.960;2023-07-31T03:01:26;98510.38;;;18.27;61.05
75045;BME280;63614;56.026;35.960;2023-07-31T03:03:52;98505.44;;;18.51;59.65
75045;BME280;63614;56.026;35.960;2023-07-31T03:06:18;98504.69;;;18.92;58.79
75045;BME280;63614;56.026;35.960;2023-07-31T03:08:44;98505.97;;;19.26;57.90
75045;BME280;63614;56.026;35.960;2023-07-31T03:11:10;98515.47;;;19.42;57.75
75045;BME280;63614;56.026;35.960;2023-07-31T03:13:36;98513.84;;;19.77;56.65
75045;BME280;63614;56.026;35.960;2023-07-31T03:16:02;98510.50;;;20.16;55.50
75045;BME280;63614;56.026;35.960;2023-07-31T03:18:27;98507.94;;;20.50;54.82
75045;BME280;63614;56.026;35.960;2023-07-31T03:20:53;98505.72;;;20.68;54.06
75045;BME280;63614;56.026;35.960;2023-07-31T03:23:19;98504.69;;;20.98;54.25
75045;BME280;63614;56.026;35.960;2023-07-31T03:25:59;98505.44;;;21.33;53.70
75045;BME280;63614;56.026;35.960;2023-07-31T03:28:28;98511.28;;;21.59;53.63
75045;BME280;63614;56.026;35.960;2023-07-31T03:30:54;98507.22;;;21.38;55.58
75045;BME280;63614;56.026;35.960;2023-07-31T03:33:20;98502.97;;;21.90;54.42
75045;BME280;63614;56.026;35.960;2023-07-31T03:35:46;98505.97;;;22.46;53.39
75045;BME280;63614;56.026;35.960;2023-07-31T03:38:13;98508.78;;;22.88;50.53
75045;BME280;63614;56.026;35.960;2023-07-31T03:40:39;98505.44;;;23.15;49.70
75045;BME280;63614;56.026;35.960;2023-07-31T03:43:05;98508.06;;;23.48;48.97
75045;BME280;63614;56.026;35.960;2023-07-31T03:45:31;98501.78;;;23.71;48.97
75045;BME280;63614;56.026;35.960;2023-07-31T03:47:57;98505.91;;;23.91;48.90
75045;BME280;63614;56.026;35.960;2023-07-31T03:50:25;98503.22;;;24.42;47.92
75045;BME280;63614;56.026;35.960;2023-07-31T03:52:51;98509.97;;;24.25;47.74
75045;BME280;63614;56.026;35.960;2023-07-31T03:55:17;98512.13;;;24.23;47.81
75045;BME280;63614;56.026;35.960;2023-07-31T03:57:43;98504.91;;;24.38;46.09
75045;BME280;63614;56.026;35.960;2023-07-31T04:00:10;98506.53;;;24.61;45.48
75045;BME280;63614;56.026;35.960;2023-07-31T04:02:41;98506.56;;;25.15;45.27
75045;BME280;63614;56.026;35.960;2023-07-31T04:05:07;98507.00;;;25.09;44.26
75045;BME280;63614;56.026;35.960;2023-07-31T04:07:34;98509.47;;;25.28;43.44
75045;BME280;63614;56.026;35.960;2023-07-31T04:10:00;98508.19;;;25.65;43.62
75045;BME280;63614;56.026;35.960;2023-07-31T04:12:26;98505.41;;;25.70;42.88
75045;BME280;63614;56.026;35.960;2023-07-31T04:14:52;98497.34;;;26.19;41.89
75045;BME280;63614;56.026;35.960;2023-07-31T04:17:18;98501.56;;;26.64;40.90
75045;BME280;63614;56.026;35.960;2023-07-31T04:19:44;98500.69;;;27.33;39.78
75045;BME280;63614;56.026;35.960;2023-07-31T04:22:10;98500.81;;;27.37;41.11
75045;BME280;63614;56.026;35.960;2023-07-31T04:24:36;98500.34;;;27.73;40.03
75045;BME280;63614;56.026;35.960;2023-07-31T04:27:01;98498.31;;;27.70;38.63
75045;BME280;63614;56.026;35.960;2023-07-31T04:29:27;98500.75;;;27.84;38.95
75045;BME280;63614;56.026;35.960;2023-07-31T04:31:53;98508.75;;;28.14;39.73
75045;BME280;63614;56.026;35.960;2023-07-31T04:34:19;98510.03;;;28.08;38.11
75045;BME280;63614;56.026;35.960;2023-07-31T04:36:45;98505.78;;;28.49;37.29
75045;BME280;63614;56.026;35.960;2023-07-31T04:39:10;98500.06;;;28.17;38.15
75045;BME280;63614;56.026;35.960;2023-07-31T04:41:36;98502.38;;;28.82;37.66
75045;BME280;63614;56.026;35.960;2023-07-31T04:44:02;98507.63;;;29.37;37.61
75045;BME280;63614;56.026;35.960;2023-07-31T04:46:29;98506.63;;;28.95;36.26
75045;BME280;63614;56.026;35.960;2023-07-31T04:48:56;98517.44;;;28.87;36.21
75045;BME280;63614;56.026;35.960;2023-07-31T04:51:22;98512.75;;;28.84;37.98
75045;BME280;63614;56.026;35.960;2023-07-31T04:53:49;98513.28;;;29.10;37.92
75045;BME280;63614;56.026;35.960;2023-07-31T04:56:15;98514.88;;;29.36;37.00
75045;BME280;63614;56.026;35.960;2023-07-31T04:58:41;98514.69;;;29.53;36.59
75045;BME280;63614;56.026;35.960;2023-07-31T05:01:07;98515.00;;;30.01;36.46
75045;BME280;63614;56.026;35.960;2023-07-31T05:03:33;98514.47;;;30.24;35.44
75045;BME280;63614;56.026;35.960;2023-07-31T05:05:59;98511.56;;;29.88;36.05
75045;BME280;63614;56.026;35.960;2023-07-31T05:08:24;98511.09;;;29.62;35.92
75045;BME280;63614;56.026;35.960;2023-07-31T05:10:50;98504.25;;;29.64;35.63
75045;BME280;63614;56.026;35.960;2023-07-31T05:13:16;98508.66;;;30.22;34.61
75045;BME280;63614;56.026;35.960;2023-07-31T05:15:42;98508.41;;;30.68;34.17
75045;BME280;63614;56.026;35.960;2023-07-31T05:18:07;98515.34;;;30.28;34.72
75045;BME280;63614;56.026;35.960;2023-07-31T05:20:33;98501.97;;;30.56;34.13
75045;BME280;63614;56.026;35.960;2023-07-31T05:22:59;98505.81;;;30.71;33.71
75045;BME280;63614;56.026;35.960;2023-07-31T05:25:25;98515.66;;;30.95;33.75
75045;BME280;63614;56.026;35.960;2023-07-31T05:27:51;98498.16;;;31.33;31.47
75045;BME280;63614;56.026;35.960;2023-07-31T05:30:16;98501.53;;;31.62;30.91
75045;BME280;63614;56.026;35.960;2023-07-31T05:32:42;98502.25;;;31.95;29.82
75045;BME280;63614;56.026;35.960;2023-07-31T05:35:08;98504.34;;;31.66;30.86
75045;BME280;63614;56.026;35.960;2023-07-31T05:37:34;98504.91;;;31.75;31.38
75045;BME280;63614;56.026;35.960;2023-07-31T05:40:00;98504.22;;;32.33;30.26
75045;BME280;63614;56.026;35.960;2023-07-31T05:42:26;98502.44;;;31.86;30.98
75045;BME280;63614;56.026;35.960;2023-07-31T05:44:52;98503.38;;;32.49;29.81
75045;BME280;63614;56.026;35.960;2023-07-31T05:47:17;98492.19;;;32.89;29.74
75045;BME280;63614;56.026;35.960;2023-07-31T05:49:43;98503.91;;;32.58;30.21
75045;BME280;63614;56.026;35.960;2023-07-31T05:52:09;98493.06;;;32.74;29.83
75045;BME280;63614;56.026;35.960;2023-07-31T05:54:35;98498.34;;;32.67;29.73
75045;BME280;63614;56.026;35.960;2023-07-31T05:57:01;98493.28;;;32.07;30.56
75045;BME280;63614;56.026;35.960;2023-07-31T05:59:27;98499.66;;;32.37;29.58
75045;BME280;63614;56.026;35.960;2023-07-31T06:01:53;98493.50;;;32.99;28.87
75045;BME280;63614;56.026;35.960;2023-07-31T06:04:18;98491.69;;;32.84;29.06
75045;BME280;63614;56.026;35.960;2023-07-31T06:06:44;98488.84;;;32.73;28.60
75045;BME280;63614;56.026;35.960;2023-07-31T06:09:10;98490.81;;;32.56;27.96
75045;BME280;63614;56.026;35.960;2023-07-31T06:11:37;98495.88;;;32.19;28.89
75045;BME280;63614;56.026;35.960;2023-07-31T06:14:02;98501.03;;;31.41;30.69
75045;BME280;63614;56.026;35.960;2023-07-31T06:16:28;98501.25;;;30.72;31.73
75045;BME280;63614;56.026;35.960;2023-07-31T06:18:54;98496.22;;;30.70;32.98
75045;BME280;63614;56.026;35.960;2023-07-31T06:21:20;98497.72;;;30.27;33.51
75045;BME280;63614;56.026;35.960;2023-07-31T06:23:46;98502.34;;;30.14;32.92
75045;BME280;63614;56.026;35.960;2023-07-31T06:26:11;98497.41;;;29.17;34.69
75045;BME280;63614;56.026;35.960;2023-07-31T06:28:37;98494.16;;;29.12;35.25
75045;BME280;63614;56.026;35.960;2023-07-31T06:31:03;98496.31;;;28.73;35.38
75045;BME280;63614;56.026;35.960;2023-07-31T06:33:29;98492.69;;;28.56;37.38
75045;BME280;63614;56.026;35.960;2023-07-31T06:35:54;98497.34;;;28.26;38.23
75045;BME280;63614;56.026;35.960;2023-07-31T06:38:25;98499.63;;;28.15;37.78
75045;BME280;63614;56.026;35.960;2023-07-31T06:40:51;98505.50;;;28.08;38.91
75045;BME280;63614;56.026;35.960;2023-07-31T06:43:17;98501.47;;;27.94;38.52
75045;BME280;63614;56.026;35.960;2023-07-31T06:45:43;98511.69;;;28.00;38.85
75045;BME280;63614;56.026;35.960;2023-07-31T06:48:08;98503.22;;;27.60;40.21
75045;BME280;63614;56.026;35.960;2023-07-31T06:50:34;98504.09;;;27.43;40.23
75045;BME280;63614;56.026;35.960;2023-07-31T06:53:00;98505.03;;;27.47;39.48
75045;BME280;63614;56.026;35.960;2023-07-31T06:55:26;98498.03;;;27.33;39.80
75045;BME280;63614;56.026;35.960;2023-07-31T06:57:54;98504.56;;;27.45;38.90
75045;BME280;63614;56.026;35.960;2023-07-31T07:00:21;98499.66;;;27.56;38.65
75045;BME280;63614;56.026;35.960;2023-07-31T07:02:47;98506.97;;;27.29;38.65
75045;BME280;63614;56.026;35.960;2023-07-31T07:05:14;98504.31;;;27.20;39.94
75045;BME280;63614;56.026;35.960;2023-07-31T07:07:41;98503.13;;;27.00;39.46
75045;BME280;63614;56.026;35.960;2023-07-31T07:10:07;98503.75;;;26.88;39.55
75045;BME280;63614;56.026;35.960;2023-07-31T07:12:34;98496.06;;;26.87;39.29
75045;BME280;63614;56.026;35.960;2023-07-31T07:15:00;98497.81;;;26.82;40.25
75045;BME280;63614;56.026;35.960;2023-07-31T07:17:28;98500.78;;;26.90;38.84
75045;BME280;63614;56.026;35.960;2023-07-31T07:19:55;98504.38;;;26.94;40.51
75045;BME280;63614;56.026;35.960;2023-07-31T07:22:21;98494.31;;;26.99;39.51
75045;BME280;63614;56.026;35.960;2023-07-31T07:24:47;98498.44;;;26.79;39.49
75045;BME280;63614;56.026;35.960;2023-07-31T07:27:13;98500.47;;;26.91;38.62
75045;BME280;63614;56.026;35.960;2023-07-31T07:29:39;98498.44;;;26.88;38.35
75045;BME280;63614;56.026;35.960;2023-07-31T07:32:05;98501.41;;;26.87;39.49
75045;BME280;63614;56.026;35.960;2023-07-31T07:34:34;98498.78;;;26.78;39.79
75045;BME280;63614;56.026;35.960;2023-07-31T07:37:00;98493.56;;;26.64;39.18
75045;BME280;63614;56.026;35.960;2023-07-31T07:39:26;98508.03;;;26.54;39.74
75045;BME280;63614;56.026;35.960;2023-07-31T07:41:52;98489.97;;;26.51;40.03
75045;BME280;63614;56.026;35.960;2023-07-31T07:44:19;98500.97;;;26.50;39.70
75045;BME280;63614;56.026;35.960;2023-07-31T07:46:45;98502.06;;;26.75;40.54
75045;BME280;63614;56.026;35.960;2023-07-31T07:49:11;98505.69;;;26.70;39.51
75045;BME280;63614;56.026;35.960;2023-07-31T07:51:37;98508.78;;;26.90;39.61
75045;BME280;63614;56.026;35.960;2023-07-31T07:54:02;98507.19;;;26.97;37.81
75045;BME280;63614;56.026;35.960;2023-07-31T07:56:28;98505.00;;;26.99;38.37
75045;BME280;63614;56.026;35.960;2023-07-31T07:58:54;98507.03;;;27.03;40.23
75045;BME280;63614;56.026;35.960;2023-07-31T08:01:20;98497.53;;;26.67;38.94
75045;BME280;63614;56.026;35.960;2023-07-31T08:03:47;98503.78;;;26.53;39.22
75045;BME280;63614;56.026;35.960;2023-07-31T08:06:14;98509.59;;;26.29;39.63
75045;BME280;63614;56.026;35.960;2023-07-31T08:08:39;98505.47;;;26.05;39.31
75045;BME280;63614;56.026;35.960;2023-07-31T08:11:05;98514.06;;;25.93;41.18
75045;BME280;63614;56.026;35.960;2023-07-31T08:13:31;98513.88;;;25.81;42.15
75045;BME280;63614;56.026;35.960;2023-07-31T08:15:57;98512.63;;;25.79;41.36
75045;BME280;63614;56.026;35.960;2023-07-31T08:18:23;98513.56;;;25.83;41.27
75045;BME280;63614;56.026;35.960;2023-07-31T08:20:49;98514.19;;;25.71;41.56
75045;BME280;63614;56.026;35.960;2023-07-31T08:23:15;98513.25;;;25.76;42.36
75045;BME280;63614;56.026;35.960;2023-07-31T08:25:40;98509.72;;;25.49;43.34
75045;BME280;63614;56.026;35.960;2023-07-31T08:28:06;98512.97;;;25.37;44.43
75045;BME280;63614;56.026;35.960;2023-07-31T08:30:33;98507.22;;;25.52;44.78
75045;BME280;63614;56.026;35.960;2023-07-31T08:32:59;98508.28;;;25.91;42.19
75045;BME280;63614;56.026;35.960;2023-07-31T08:35:26;98501.91;;;26.19;40.12
75045;BME280;63614;56.026;35.960;2023-07-31T08:37:54;98510.06;;;26.40;39.27
75045;BME280;63614;56.026;35.960;2023-07-31T08:40:20;98517.09;;;26.53;39.62
75045;BME280;63614;56.026;35.960;2023-07-31T08:42:49;98507.41;;;26.66;39.58
75045;BME280;63614;56.026;35.960;2023-07-31T08:45:17;98504.56;;;26.80;38.04
75045;BME280;63614;56.026;35.960;2023-07-31T08:47:51;98507.88;;;26.68;37.35
75045;BME280;63614;56.026;35.960;2023-07-31T08:50:20;98511.47;;;26.55;37.77
75045;BME280;63614;56.026;35.960;2023-07-31T08:52:48;98507.22;;;26.01;38.61
75045;BME280;63614;56.026;35.960;2023-07-31T08:55:14;98516.56;;;25.90;39.36
75045;BME280;63614;56.026;35.960;2023-07-31T08:57:41;98516.25;;;25.91;39.41
75045;BME280;63614;56.026;35.960;2023-07-31T09:00:09;98511.88;;;25.96;41.49
75045;BME280;63614;56.026;35.960;2023-07-31T09:05:15;98509.66;;;25.80;39.70
75045;BME280;63614;56.026;35.960;2023-07-31T09:07:43;98510.69;;;25.62;40.50
75045;BME280;63614;56.026;35.960;2023-07-31T09:10:12;98514.44;;;25.61;41.29
75045;BME280;63614;56.026;35.960;2023-07-31T09:12:38;98517.72;;;25.58;41.29
75045;BME280;63614;56.026;35.960;2023-07-31T09:15:05;98514.38;;;25.43;41.44
75045;BME280;63614;56.026;35.960;2023-07-31T09:17:37;98513.28;;;25.44;41.87
75045;BME280;63614;56.026;35.960;2023-07-31T09:20:20;98508.88;;;25.40;41.86
75045;BME280;63614;56.026;35.960;2023-07-31T09:22:48;98504.78;;;25.33;42.94
75045;BME280;63614;56.026;35.960;2023-07-31T09:25:22;98509.28;;;25.24;42.70
75045;BME280;63614;56.026;35.960;2023-07-31T09:28:00;98513.94;;;25.18;43.48
75045;BME280;63614;56.026;35.960;2023-07-31T09:30:26;98509.53;;;25.14;43.16
75045;BME280;63614;56.026;35.960;2023-07-31T09:33:01;98508.75;;;25.13;43.79
75045;BME280;63614;56.026;35.960;2023-07-31T09:35:32;98512.22;;;25.45;43.29
75045;BME280;63614;56.026;35.960;2023-07-31T09:38:00;98509.31;;;25.64;42.83
75045;BME280;63614;56.026;35.960;2023-07-31T09:43:06;98514.34;;;25.74;42.13
75045;BME280;63614;56.026;35.960;2023-07-31T09:45:36;98519.84;;;25.38;42.05
75045;BME280;63614;56.026;35.960;2023-07-31T09:48:03;98505.91;;;25.32;42.72
75045;BME280;63614;56.026;35.960;2023-07-31T09:50:29;98518.59;;;25.13;42.44
75045;BME280;63614;56.026;35.960;2023-07-31T09:52:55;98515.16;;;25.12;44.79
75045;BME280;63614;56.026;35.960;2023-07-31T09:55:21;98522.25;;;24.94;46.88
75045;BME280;63614;56.026;35.960;2023-07-31T09:57:48;98529.69;;;24.83;45.08
75045;BME280;63614;56.026;35.960;2023-07-31T10:00:17;98529.25;;;24.68;46.66
75045;BME280;63614;56.026;35.960;2023-07-31T10:02:46;98532.47;;;24.42;48.87
75045;BME280;63614;56.026;35.960;2023-07-31T10:05:15;98531.84;;;24.22;50.62
75045;BME280;63614;56.026;35.960;2023-07-31T10:08:05;98537.69;;;23.97;51.56
75045;BME280;63614;56.026;35.960;2023-07-31T10:10:32;98539.03;;;23.80;51.54
75045;BME280;63614;56.026;35.960;2023-07-31T10:13:01;98536.16;;;23.63;52.32
75045;BME280;63614;56.026;35.960;2023-07-31T10:15:28;98546.59;;;23.59;52.86
75045;BME280;63614;56.026;35.960;2023-07-31T10:17:55;98551.38;;;23.43;52.39
75045;BME280;63614;56.026;35.960;2023-07-31T10:20:22;98548.47;;;23.12;52.53
75045;BME280;63614;56.026;35.960;2023-07-31T10:22:48;98554.59;;;22.74;52.33
75045;BME280;63614;56.026;35.960;2023-07-31T10:25:18;98555.09;;;22.76;51.72
75045;BME280;63614;56.026;35.960;2023-07-31T10:27:47;98555.09;;;22.57;52.14
75045;BME280;63614;56.026;35.960;2023-07-31T10:30:15;98543.50;;;22.53;51.07
75045;BME280;63614;56.026;35.960;2023-07-31T10:32:43;98550.81;;;22.42;50.84
75045;BME280;63614;56.026;35.960;2023-07-31T10:35:11;98553.25;;;22.39;51.56
75045;BME280;63614;56.026;35.960;2023-07-31T10:37:40;98563.84;;;22.39;53.87
75045;BME280;63614;56.026;35.960;2023-07-31T10:40:11;98558.03;;;22.37;53.91
75045;BME280;63614;56.026;35.960;2023-07-31T10:45:25;98560.47;;;22.09;56.78
75045;BME280;63614;56.026;35.960;2023-07-31T10:48:02;98555.81;;;22.01;58.48
75045;BME280;63614;56.026;35.960;2023-07-31T10:50:30;98554.72;;;21.83;58.57
75045;BME280;63614;56.026;35.960;2023-07-31T10:52:58;98548.94;;;21.75;57.84
75045;BME280;63614;56.026;35.960;2023-07-31T10:55:29;98552.22;;;21.67;58.86
75045;BME280;63614;56.026;35.960;2023-07-31T10:57:57;98548.03;;;21.61;59.91
75045;BME280;63614;56.026;35.960;2023-07-31T11:00:28;98543.38;;;21.53;60.49
75045;BME280;63614;56.026;35.960;2023-07-31T11:03:03;98542.00;;;21.55;61.06
75045;BME280;63614;56.026;35.960;2023-07-31T11:05:49;98543.69;;;21.41;60.98
75045;BME280;63614;56.026;35.960;2023-07-31T11:08:24;98542.69;;;21.37;60.69
75045;BME280;63614;56.026;35.960;2023-07-31T11:11:07;98537.13;;;21.38;60.66
75045;BME280;63614;56.026;35.960;2023-07-31T11:13:53;98537.84;;;21.49;59.59
75045;BME280;63614;56.026;35.960;2023-07-31T11:16:22;98525.56;;;21.58;60.28
75045;BME280;63614;56.026;35.960;2023-07-31T11:18:48;98532.84;;;21.72;61.05
75045;BME280;63614;56.026;35.960;2023-07-31T11:21:19;98538.13;;;21.96;60.25
75045;BME280;63614;56.026;35.960;2023-07-31T11:23:47;98534.41;;;22.16;59.56
75045;BME280;63614;56.026;35.960;2023-07-31T11:26:13;98531.53;;;22.37;58.35
75045;BME280;63614;56.026;35.960;2023-07-31T11:28:38;98539.34;;;22.66;57.00
75045;BME280;63614;56.026;35.960;2023-07-31T11:31:04;98534.56;;;23.01;55.56
75045;BME280;63614;56.026;35.960;2023-07-31T11:33:31;98538.19;;;23.24;54.77
75045;BME280;63614;56.026;35.960;2023-07-31T11:35:57;98536.66;;;23.51;54.33
75045;BME280;63614;56.026;35.960;2023-07-31T11:38:28;98534.91;;;24.02;54.00
75045;BME280;63614;56.026;35.960;2023-07-31T11:40:56;98529.41;;;24.48;50.00
75045;BME280;63614;56.026;35.960;2023-07-31T11:43:23;98531.28;;;24.62;50.00
75045;BME280;63614;56.026;35.960;2023-07-31T11:45:51;98534.28;;;24.69;50.34
75045;BME280;63614;56.026;35.960;2023-07-31T11:48:35;98540.38;;;24.70;49.46
75045;BME280;63614;56.026;35.960;2023-07-31T11:51:09;98539.28;;;24.71;52.45
75045;BME280;63614;56.026;35.960;2023-07-31T11:54:07;98549.03;;;24.75;51.56
75045;BME280;63614;56.026;35.960;2023-07-31T11:56:33;98546.84;;;24.77;50.98
75045;BME280;63614;56.026;35.960;2023-07-31T11:58:59;98542.97;;;24.83;51.53
75045;BME280;63614;56.026;35.960;2023-07-31T12:01:28;98549.47;;;24.91;52.99
75045;BME280;63614;56.026;35.960;2023-07-31T12:03:55;98557.25;;;25.10;52.52
75045;BME280;63614;56.026;35.960;2023-07-31T12:06:21;98559.59;;;25.12;50.47
75045;BME280;63614;56.026;35.960;2023-07-31T12:08:48;98554.59;;;24.88;50.13
75045;BME280;63614;56.026;35.960;2023-07-31T12:11:14;98562.94;;;24.72;52.08
75045;BME280;63614;56.026;35.960;2023-07-31T12:13:41;98563.94;;;24.62;53.73
75045;BME280;63614;56.026;35.960;2023-07-31T12:16:07;98558.66;;;24.35;53.97
75045;BME280;63614;56.026;35.960;2023-07-31T12:18:35;98564.31;;;24.05;54.20
75045;BME280;63614;56.026;35.960;2023-07-31T12:21:04;98564.22;;;23.83;54.40
75045;BME280;63614;56.026;35.960;2023-07-31T12:23:31;98562.53;;;23.59;54.82
75045;BME280;63614;56.026;35.960;2023-07-31T12:26:14;98579.13;;;23.51;55.24
75045;BME280;63614;56.026;35.960;2023-07-31T12:28:48;98565.13;;;23.31;54.56
75045;BME280;63614;56.026;35.960;2023-07-31T12:31:20;98569.44;;;23.27;53.92
75045;BME280;63614;56.026;35.960;2023-07-31T12:33:48;98566.50;;;23.29;53.53
75045;BME280;63614;56.026;35.960;2023-07-31T12:36:17;98558.53;;;23.29;53.25
75045;BME280;63614;56.026;35.960;2023-07-31T12:38:43;98558.88;;;23.41;53.25
75045;BME280;63614;56.026;35.960;2023-07-31T12:41:10;98555.22;;;23.37;52.54
75045;BME280;63614;56.026;35.960;2023-07-31T12:43:40;98557.91;;;23.51;52.93
75045;BME280;63614;56.026;35.960;2023-07-31T12:46:07;98560.16;;;23.57;52.70
75045;BME280;63614;56.026;35.960;2023-07-31T12:48:37;98558.38;;;23.53;52.79
75045;BME280;63614;56.026;35.960;2023-07-31T12:51:03;98562.22;;;23.61;53.11
75045;BME280;63614;56.026;35.960;2023-07-31T12:53:29;98562.13;;;23.66;51.83
75045;BME280;63614;56.026;35.960;2023-07-31T12:55:56;98565.38;;;23.76;51.60
75045;BME280;63614;56.026;35.960;2023-07-31T12:58:22;98554.28;;;23.74;51.51
75045;BME280;63614;56.026;35.960;2023-07-31T13:00:48;98561.84;;;23.81;51.70
75045;BME280;63614;56.026;35.960;2023-07-31T13:03:14;98573.56;;;23.94;51.93
75045;BME280;63614;56.026;35.960;2023-07-31T13:05:40;98564.69;;;23.71;52.50